Time;durP1;ratioP1;P1;durP2;ratioP2;P2;SDS_P1;SDS_P2;PMS_P1;PMS_P2;Temp;Humidity;BMP_temperature;BMP_pressure;BME280_temperature;BME280_humidity;BME280_pressure;Samples;Min_cycle;Max_cycle;Signal;HPM_P1;HPM_P2
2021/04/14 00:02:05;;;;;;;2.53;1.93;;;0.00;99.90;;;;;;5009371;28;20509;-86
2021/04/14 00:04:32;;;;;;;3.70;1.57;;;0.10;99.90;;;;;;5003242;28;20486;-89
2021/04/14 00:07:00;;;;;;;2.13;1.90;;;0.20;99.90;;;;;;4994722;28;20445;-87
2021/04/14 00:09:26;;;;;;;2.80;1.90;;;0.40;99.90;;;;;;4994962;28;20441;-90
2021/04/14 00:11:53;;;;;;;2.33;2.10;;;;;;;;;;4994389;28;20454;-85
2021/04/14 00:14:19;;;;;;;3.80;2.67;;;-0.10;99.90;;;;;;4994646;28;20441;-87
2021/04/14 00:16:46;;;;;;;2.77;2.13;;;;;;;;;;4994867;28;20861;-85
2021/04/14 00:19:12;;;;;;;3.77;1.70;;;-0.20;99.90;;;;;;4993757;28;20445;-88
2021/04/14 00:21:40;;;;;;;4.60;1.90;;;-0.40;99.90;;;;;;4989514;28;20504;-89
2021/04/14 00:24:06;;;;;;;3.63;2.33;;;-0.10;99.90;;;;;;4994556;28;20453;-86
2021/04/14 00:26:33;;;;;;;1.90;1.53;;;;;;;;;;4994427;28;20948;-91
2021/04/14 00:28:59;;;;;;;3.50;1.90;;;;;;;;;;4994416;28;20477;-87
2021/04/14 00:31:35;;;;;;;2.57;1.67;;;-0.30;99.90;;;;;;4994729;28;20953;-87
2021/04/14 00:34:04;;;;;;;2.77;1.80;;;-0.30;99.90;;;;;;4993585;28;20456;-87
2021/04/14 00:36:31;;;;;;;3.57;1.73;;;;;;;;;;4994628;28;20507;-88
2021/04/14 00:38:58;;;;;;;2.33;1.67;;;-0.40;99.90;;;;;;4994495;28;20460;-86
2021/04/14 00:41:25;;;;;;;2.40;1.70;;;;;;;;;;4994431;28;20484;-90
2021/04/14 00:43:51;;;;;;;2.20;1.93;;;-0.40;99.90;;;;;;4994598;28;20460;-90
2021/04/14 00:46:17;;;;;;;2.47;1.53;;;;;;;;;;4994361;28;20452;-86
2021/04/14 00:48:44;;;;;;;1.80;1.70;;;;;;;;;;4993780;28;20451;-88
2021/04/14 00:51:11;;;;;;;3.17;1.70;;;-0.50;99.90;;;;;;4994409;28;20970;-85
2021/04/14 00:53:37;;;;;;;1.90;1.57;;;;;;;;;;4994511;28;20526;-89
2021/04/14 00:56:06;;;;;;;5.20;2.07;;;;;;;;;;4994368;28;20488;-89
2021/04/14 00:58:33;;;;;;;3.43;1.83;;;;;;;;;;4994165;28;20459;-87
2021/04/14 01:00:59;;;;;;;2.90;2.07;;;-0.50;99.90;;;;;;4993941;28;20539;-90
2021/04/14 01:03:31;;;;;;;2.57;1.60;;;-0.50;99.90;;;;;;4992436;28;20459;-86
2021/04/14 01:05:59;;;;;;;1.70;1.23;;;-0.50;99.90;;;;;;4991898;28;20568;-89
2021/04/14 01:08:25;;;;;;;2.20;1.63;;;;;;;;;;4991447;28;20452;-87
2021/04/14 01:10:53;;;;;;;1.73;1.47;;;-0.50;99.90;;;;;;4991475;28;20507;-89
2021/04/14 01:13:21;;;;;;;2.53;1.43;;;-2.20;99.90;;;;;;4990244;28;20456;-88
2021/04/14 01:15:50;;;;;;;2.73;1.53;;;-0.70;99.90;;;;;;4994497;28;20484;-89
2021/04/14 01:18:18;;;;;;;3.13;1.60;;;-0.70;99.90;;;;;;4993350;28;20468;-86
2021/04/14 01:20:45;;;;;;;1.80;1.30;;;;;;;;;;4994046;28;20456;-86
2021/04/14 01:23:12;;;;;;;3.23;1.43;;;-1.20;99.90;;;;;;4994166;28;20479;-87
2021/04/14 01:25:42;;;;;;;1.57;1.30;;;-0.90;99.90;;;;;;4994297;28;20440;-88
2021/04/14 01:28:12;;;;;;;1.80;1.27;;;0.00;99.90;;;;;;4991367;28;20559;-88
2021/04/14 01:30:39;;;;;;;2.80;1.50;;;-0.60;99.90;;;;;;4993987;28;20469;-89
2021/04/14 01:33:05;;;;;;;4.83;1.60;;;-0.70;99.90;;;;;;4988842;28;20810;-89
2021/04/14 01:35:32;;;;;;;5.20;1.83;;;;;;;;;;4992680;28;20566;-89
2021/04/14 01:37:59;;;;;;;3.63;1.37;;;;;;;;;;4994453;28;20816;-89
2021/04/14 01:40:27;;;;;;;3.30;1.60;;;-0.70;99.90;;;;;;4994111;28;20441;-92
2021/04/14 01:42:55;;;;;;;3.00;1.30;;;-0.70;99.90;;;;;;4994232;28;20497;-89
2021/04/14 01:45:24;;;;;;;2.30;1.47;;;-1.00;99.90;;;;;;4994213;28;20807;-90
2021/04/14 01:47:50;;;;;;;1.50;1.40;;;;;;;;;;4993843;28;20472;-90
2021/04/14 01:50:17;;;;;;;2.10;1.23;;;;;;;;;;4991607;28;20495;-88
2021/04/14 01:52:44;;;;;;;2.20;1.20;;;-1.10;99.90;;;;;;4990900;28;20445;-88
2021/04/14 01:55:11;;;;;;;2.10;1.33;;;-0.90;99.90;;;;;;4991914;28;20440;-88
2021/04/14 01:57:39;;;;;;;4.40;2.00;;;-0.90;99.90;;;;;;4993801;28;20445;-89
2021/04/14 02:00:14;;;;;;;2.63;1.70;;;-1.10;99.90;;;;;;4990304;28;20457;-88
2021/04/14 02:02:40;;;;;;;3.23;1.33;;;-1.10;99.90;;;;;;4994728;28;20558;-89
2021/04/14 02:05:08;;;;;;;3.10;1.70;;;-1.00;99.90;;;;;;4990070;28;20457;-89
2021/04/14 02:07:35;;;;;;;1.80;1.40;;;;;;;;;;4992371;28;20455;-89
2021/04/14 02:10:01;;;;;;;3.73;1.47;;;-0.90;99.90;;;;;;4994058;28;20453;-89
2021/04/14 02:12:28;;;;;;;1.87;1.57;;;-0.80;99.90;;;;;;4994352;28;20460;-90
2021/04/14 02:14:55;;;;;;;2.60;1.43;;;-1.00;99.90;;;;;;4997831;28;20448;-90
2021/04/14 02:17:22;;;;;;;3.87;1.53;;;-1.00;99.90;;;;;;4998207;28;20456;-87
2021/04/14 02:19:48;;;;;;;3.50;1.27;;;;;;;;;;4994278;28;20447;-89
2021/04/14 02:22:15;;;;;;;1.47;1.07;;;-0.90;99.90;;;;;;4997575;28;20969;-89
2021/04/14 02:24:41;;;;;;;2.60;1.50;;;;;;;;;;4997648;28;20816;-88
2021/04/14 02:27:08;;;;;;;2.17;1.50;;;-1.10;99.90;;;;;;4997757;28;20488;-89
2021/04/14 02:29:34;;;;;;;1.23;1.13;;;-1.10;99.90;;;;;;4997119;28;20449;-88
2021/04/14 02:32:01;;;;;;;6.50;1.63;;;-1.20;99.90;;;;;;4997814;28;20793;-89
2021/04/14 02:34:28;;;;;;;4.97;1.83;;;;;;;;;;4996429;28;20450;-89
2021/04/14 02:36:54;;;;;;;3.40;1.83;;;-1.10;99.90;;;;;;4997406;28;20461;-90
2021/04/14 02:39:21;;;;;;;2.33;1.43;;;;;;;;;;4994560;28;20476;-87
2021/04/14 02:41:47;;;;;;;3.60;1.80;;;-1.10;99.90;;;;;;4997464;28;20495;-87
2021/04/14 02:44:14;;;;;;;5.67;1.77;;;;;;;;;;4997563;28;20460;-88
2021/04/14 02:46:40;;;;;;;2.83;1.50;;;-1.10;99.90;;;;;;4997156;28;20460;-90
2021/04/14 02:49:08;;;;;;;5.27;2.20;;;-0.70;99.90;;;;;;4996589;28;20943;-88
2021/04/14 02:51:34;;;;;;;2.53;1.10;;;-1.40;99.90;;;;;;4994667;28;20448;-91
2021/04/14 02:54:01;;;;;;;3.40;1.50;;;;;;;;;;4994409;28;20501;-89
2021/04/14 02:56:27;;;;;;;2.53;1.57;;;-1.20;99.90;;;;;;4997371;28;20456;-89
2021/04/14 02:58:54;;;;;;;12.63;1.57;;;;;;;;;;4997188;28;20456;-89
2021/04/14 03:01:20;;;;;;;4.20;1.50;;;-1.30;99.90;;;;;;4997075;28;20491;-88
2021/04/14 03:03:47;;;;;;;9.17;1.83;;;;;;;;;;4995724;28;20445;-90
2021/04/14 03:06:14;;;;;;;3.33;1.57;;;-1.40;99.90;;;;;;5000325;28;20863;-88
2021/04/14 03:08:42;;;;;;;2.47;1.80;;;;;;;;;;5001339;28;20457;-87
2021/04/14 03:11:08;;;;;;;2.53;1.97;;;;;;;;;;5000100;28;20490;-88
2021/04/14 03:13:35;;;;;;;1.43;1.23;;;;;;;;;;5002015;28;20452;-89
2021/04/14 03:16:02;;;;;;;5.20;1.90;;;;;;;;;;4997151;28;20460;-88
2021/04/14 03:18:28;;;;;;;3.47;1.97;;;;;;;;;;4996391;28;20449;-89
2021/04/14 03:20:55;;;;;;;3.13;1.80;;;-1.40;99.90;;;;;;4996801;28;20455;-88
2021/04/14 03:23:23;;;;;;;2.50;1.90;;;-0.70;99.90;;;;;;4996916;28;20453;-91
2021/04/14 03:25:49;;;;;;;2.23;1.83;;;-1.70;99.90;;;;;;4992963;28;20967;-90
2021/04/14 03:28:16;;;;;;;3.73;1.50;;;;;;;;;;4996872;28;20476;-90
2021/04/14 03:30:43;;;;;;;5.37;1.80;;;-1.30;99.90;;;;;;4996630;28;20449;-89
2021/04/14 03:33:10;;;;;;;4.53;1.63;;;-1.20;99.90;;;;;;4996311;28;20460;-87
2021/04/14 03:35:37;;;;;;;2.10;1.90;;;-1.50;99.90;;;;;;5004690;28;20451;-87
2021/04/14 03:38:03;;;;;;;1.73;1.63;;;-1.70;99.90;;;;;;5006565;28;20458;-86
2021/04/14 03:40:31;;;;;;;2.17;1.80;;;-1.50;99.90;;;;;;5006088;28;20456;-87
2021/04/14 03:42:58;;;;;;;1.80;1.50;;;;;;;;;;5003253;28;20514;-89
2021/04/14 03:45:31;;;;;;;2.90;1.53;;;-1.60;99.90;;;;;;5005527;28;20457;-88
2021/04/14 03:47:58;;;;;;;3.90;1.87;;;;;;;;;;4999894;28;20459;-86
2021/04/14 03:50:26;;;;;;;2.80;1.53;;;-1.00;99.90;;;;;;4999946;28;20452;-87
2021/04/14 03:52:53;;;;;;;5.87;1.80;;;;;;;;;;4992470;28;20456;-89
2021/04/14 03:55:21;;;;;;;4.83;1.90;;;-1.70;99.90;;;;;;4996163;28;20456;-90
2021/04/14 03:57:48;;;;;;;6.77;2.60;;;-1.80;99.90;;;;;;4995688;28;20457;-89
2021/04/14 04:00:19;;;;;;;2.43;1.50;;;-1.70;99.90;;;;;;4995599;28;20449;-89
2021/04/14 04:02:45;;;;;;;2.60;1.50;;;;;;;;;;4994285;28;20507;-88
2021/04/14 04:05:12;;;;;;;3.17;1.67;;;-1.70;99.90;;;;;;4995335;28;20457;-88
2021/04/14 04:07:38;;;;;;;1.73;1.30;;;;;;;;;;4991122;28;20453;-87
2021/04/14 04:10:08;;;;;;;4.87;2.73;;;-1.50;99.90;;;;;;4995198;28;20460;-87
2021/04/14 04:12:34;;;;;;;2.90;1.93;;;-1.80;99.90;;;;;;4995364;28;20487;-87
2021/04/14 04:15:03;;;;;;;4.50;1.50;;;-1.70;99.90;;;;;;4995206;28;20515;-89
2021/04/14 04:17:29;;;;;;;3.70;1.73;;;;;;;;;;4995038;28;20460;-87
2021/04/14 04:19:56;;;;;;;5.80;1.97;;;;;;;;;;4994356;28;20460;-90
2021/04/14 04:22:23;;;;;;;3.87;2.30;;;;;;;;;;5008515;28;20483;-90
2021/04/14 04:24:50;;;;;;;2.20;1.60;;;-1.70;99.90;;;;;;4996181;28;20494;-88
2021/04/14 04:27:19;;;;;;;3.93;1.93;;;-1.70;99.90;;;;;;5003984;28;20481;-90
2021/04/14 04:29:46;;;;;;;8.03;2.17;;;;;;;;;;5000222;28;20443;-89
2021/04/14 04:32:13;;;;;;;4.40;2.00;;;;;;;;;;5001573;28;20452;-91
2021/04/14 04:34:40;;;;;;;3.90;2.07;;;;;;;;;;4999837;28;20446;-91
2021/04/14 04:37:07;;;;;;;4.90;2.10;;;;;;;;;;5006296;28;20473;-88
2021/04/14 04:39:33;;;;;;;3.43;1.93;;;;;;;;;;5003459;28;20437;-89
2021/04/14 04:42:00;;;;;;;5.90;1.77;;;;;;;;;;5003165;28;20502;-91
2021/04/14 04:44:26;;;;;;;3.97;2.60;;;-1.60;99.90;;;;;;5010699;28;20502;-90
2021/04/14 04:46:53;;;;;;;2.97;2.10;;;;;;;;;;4996579;28;20459;-87
2021/04/14 04:49:20;;;;;;;6.20;2.00;;;-1.80;99.90;;;;;;4995599;28;20445;-88
2021/04/14 04:51:47;;;;;;;3.43;2.13;;;;;;;;;;4999803;28;20478;-86
2021/04/14 04:54:14;;;;;;;2.23;1.70;;;;;;;;;;5004074;28;20451;-89
2021/04/14 04:56:40;;;;;;;4.20;2.20;;;;;;;;;;5000942;28;20456;-89
2021/04/14 04:59:07;;;;;;;5.83;2.73;;;;;;;;;;5013679;28;20944;-88
2021/04/14 05:01:35;;;;;;;6.93;2.90;;;;;;;;;;5011881;28;20484;-88
2021/04/14 05:04:02;;;;;;;3.93;2.87;;;;;;;;;;5010407;28;20492;-88
2021/04/14 05:06:29;;;;;;;5.10;3.30;;;-1.50;99.90;;;;;;5012384;28;20495;-87
2021/04/14 05:08:55;;;;;;;5.73;3.10;;;-1.60;99.90;;;;;;5011246;28;20450;-88
2021/04/14 05:11:22;;;;;;;3.70;2.37;;;;;;;;;;5013868;28;20462;-88
2021/04/14 05:13:49;;;;;;;3.70;2.20;;;-1.30;99.90;;;;;;5014269;28;20463;-89
2021/04/14 05:16:16;;;;;;;4.10;1.90;;;-1.30;99.90;;;;;;5010091;28;20458;-89
2021/04/14 05:18:42;;;;;;;4.40;2.10;;;;;;;;;;5012763;28;20539;-88
2021/04/14 05:21:09;;;;;;;6.93;2.40;;;;;;;;;;5013747;28;20456;-89
2021/04/14 05:23:36;;;;;;;3.00;2.30;;;-0.90;99.90;;;;;;5013791;28;20474;-91
2021/04/14 05:26:03;;;;;;;2.80;1.83;;;-1.00;99.90;;;;;;5010836;28;20813;-90
2021/04/14 05:28:30;;;;;;;3.73;2.20;;;;;;;;;;5010874;28;20487;-86
2021/04/14 05:30:56;;;;;;;2.93;1.97;;;;;;;;;;5011441;28;20463;-90
2021/04/14 05:33:23;;;;;;;4.13;2.30;;;;;;;;;;5013822;28;20455;-90
2021/04/14 05:35:50;;;;;;;5.27;1.93;;;-0.20;99.90;;;;;;5014064;28;20455;-91
2021/04/14 05:38:17;;;;;;;4.13;2.30;;;-0.10;99.90;;;;;;5014059;28;20455;-88
2021/04/14 05:40:44;;;;;;;2.37;2.17;;;0.70;99.90;;;;;;5014464;28;20480;-88
2021/04/14 05:43:17;;;;;;;2.87;2.67;;;0.30;99.90;;;;;;5013282;28;20492;-88
2021/04/14 05:45:46;;;;;;;5.50;3.00;;;;;;;;;;5013147;28;20444;-88
2021/04/14 05:48:13;;;;;;;5.33;2.10;;;1.30;99.90;;;;;;5011328;28;21046;-87
2021/04/14 05:50:40;;;;;;;6.70;2.13;;;1.50;99.90;;;;;;5013014;28;20452;-88
2021/04/14 05:53:07;;;;;;;6.10;2.43;;;1.70;99.90;;;;;;5013240;28;20443;-89
2021/04/14 05:55:33;;;;;;;2.97;2.00;;;;;;;;;;5013366;28;20451;-89
2021/04/14 05:58:01;;;;;;;3.37;2.43;;;2.50;99.90;;;;;;5013134;28;20467;-90
2021/04/14 06:00:27;;;;;;;3.20;2.33;;;2.40;99.90;;;;;;5013129;28;20507;-87
2021/04/14 06:02:54;;;;;;;6.93;2.40;;;;;;;;;;5012344;28;21014;-88
2021/04/14 06:05:22;;;;;;;6.13;2.20;;;2.90;99.90;;;;;;5013611;28;20460;-89
2021/04/14 06:07:49;;;;;;;2.90;2.60;;;;;;;;;;5013589;28;20449;-89
2021/04/14 06:10:17;;;;;;;3.50;2.10;;;3.60;99.90;;;;;;5013614;28;20456;-87
2021/04/14 06:12:44;;;;;;;4.27;2.10;;;;;;;;;;5013437;28;20451;-88
2021/04/14 06:15:14;;;;;;;6.80;2.90;;;4.20;99.90;;;;;;5013446;28;20448;-87
2021/04/14 06:17:41;;;;;;;4.33;2.80;;;;;;;;;;5010439;28;20884;-85
2021/04/14 06:20:10;;;;;;;3.43;2.70;;;4.20;99.90;;;;;;5012202;28;20440;-89
2021/04/14 06:22:36;;;;;;;2.77;2.37;;;4.50;99.90;;;;;;5008726;28;20541;-89
2021/04/14 06:25:05;;;;;;;3.83;2.33;;;4.40;99.90;;;;;;5010390;28;20497;-87
2021/04/14 06:27:35;;;;;;;5.23;2.60;;;4.80;99.90;;;;;;5013145;28;20503;-90
2021/04/14 06:30:04;;;;;;;7.43;3.37;;;4.90;99.90;;;;;;5013227;28;20494;-86
2021/04/14 06:32:31;;;;;;;5.63;3.23;;;5.20;99.90;;;;;;5012854;28;20452;-88
2021/04/14 06:34:57;;;;;;;5.97;2.80;;;5.50;99.90;;;;;;5008868;28;20453;-88
2021/04/14 06:37:24;;;;;;;2.97;2.53;;;5.60;99.90;;;;;;5009741;28;20457;-88
2021/04/14 06:40:05;;;;;;;3.50;2.73;;;5.60;99.90;;;;;;5012942;28;20867;-86
2021/04/14 06:42:45;;;;;;;2.97;2.60;;;5.80;98.80;;;;;;5012860;28;20496;-85
2021/04/14 06:45:18;;;;;;;3.93;2.33;;;6.00;99.90;;;;;;5012544;28;20451;-84
2021/04/14 06:48:06;;;;;;;3.63;2.57;;;5.80;98.40;;;;;;5014038;28;20460;-87
2021/04/14 06:50:37;;;;;;;8.07;2.23;;;5.70;99.20;;;;;;5012960;28;20467;-85
2021/04/14 06:53:15;;;;;;;3.77;2.40;;;5.60;99.20;;;;;;5012708;28;20835;-86
2021/04/14 06:55:45;;;;;;;5.10;2.70;;;5.10;98.60;;;;;;5014018;28;20824;-85
2021/04/14 06:58:16;;;;;;;3.57;2.17;;;5.10;99.50;;;;;;5013303;28;20463;-90
2021/04/14 07:00:45;;;;;;;5.70;2.20;;;4.50;99.30;;;;;;5015309;28;20452;-90
2021/04/14 07:03:17;;;;;;;3.17;1.97;;;4.80;99.80;;;;;;5014791;28;20484;-83
2021/04/14 07:05:48;;;;;;;5.90;2.23;;;4.70;99.90;;;;;;5015958;28;20456;-83
2021/04/14 07:08:20;;;;;;;4.10;2.13;;;5.40;99.90;;;;;;5012476;28;20455;-84
2021/04/14 07:10:50;;;;;;;8.20;2.33;;;5.70;99.90;;;;;;5015575;28;20452;-84
2021/04/14 07:13:17;;;;;;;4.67;2.27;;;;;;;;;;5015705;28;20460;-85
2021/04/14 07:15:44;;;;;;;3.10;2.10;;;;;;;;;;5016080;28;20449;-84
2021/04/14 07:18:25;;;;;;;2.87;2.23;;;6.50;99.90;;;;;;5018774;28;20514;-89
2021/04/14 07:21:00;;;;;;;6.00;2.70;;;6.20;98.40;;;;;;5019985;28;20532;-86
2021/04/14 07:23:34;;;;;;;5.20;2.83;;;7.90;99.20;;;;;;5020612;28;20491;-89
2021/04/14 07:26:04;;;;;;;3.73;3.00;;;6.20;99.90;;;;;;5020118;28;20464;-88
2021/04/14 07:28:54;;;;;;;3.23;2.33;;;5.90;99.90;;;;;;5016575;28;20538;-90
2021/04/14 07:31:30;;;;;;;4.77;2.43;;;4.80;97.70;;;;;;5019790;28;20456;-90
2021/04/14 07:34:09;;;;;;;2.53;2.33;;;6.20;99.90;;;;;;5016989;28;20445;-90
2021/04/14 07:36:44;;;;;;;4.80;2.60;;;5.70;99.90;;;;;;5016971;28;20468;-90
2021/04/14 07:39:16;;;;;;;5.00;2.80;;;6.10;99.00;;;;;;5017454;28;20535;-91
2021/04/14 07:41:52;;;;;;;7.90;3.37;;;7.00;99.90;;;;;;5019900;28;20582;-89
2021/04/14 07:44:27;;;;;;;5.20;2.80;;;6.70;96.70;;;;;;5015081;28;20455;-88
2021/04/14 07:46:55;;;;;;;5.20;3.20;;;7.30;96.50;;;;;;5008918;28;20440;-88
2021/04/14 07:49:26;;;;;;;4.97;3.27;;;7.70;99.90;;;;;;5005846;28;20458;-86
2021/04/14 07:51:53;;;;;;;4.10;3.27;;;;;;;;;;5009057;28;20452;-90
2021/04/14 07:54:22;;;;;;;8.87;4.30;;;;;;;;;;5015406;28;20449;-89
2021/04/14 07:56:51;;;;;;;5.63;4.20;;;8.90;94.60;;;;;;5007808;28;20464;-91
2021/04/14 07:59:26;;;;;;;5.37;4.30;;;9.10;93.70;;;;;;5015840;28;20521;-92
2021/04/14 08:01:55;;;;;;;4.63;4.23;;;8.70;92.90;;;;;;5016185;28;20487;-88
2021/04/14 08:04:27;;;;;;;5.57;4.40;;;8.90;99.90;;;;;;5010530;28;20964;-89
2021/04/14 08:06:54;;;;;;;6.30;3.63;;;9.50;99.90;;;;;;5004106;28;20449;-89
2021/04/14 08:09:22;;;;;;;5.13;3.20;;;9.90;99.00;;;;;;4995534;28;20456;-89
2021/04/14 08:11:49;;;;;;;7.77;3.63;;;10.00;91.70;;;;;;5013340;28;20449;-86
2021/04/14 08:14:31;;;;;;;5.70;3.67;;;9.70;94.70;;;;;;5015439;28;20452;-88
2021/04/14 08:17:03;;;;;;;3.13;2.73;;;9.50;95.20;;;;;;5015502;28;20471;-88
2021/04/14 08:19:36;;;;;;;3.80;2.73;;;8.40;90.70;;;;;;5014377;28;20501;-85
2021/04/14 08:22:06;;;;;;;4.90;2.83;;;9.70;92.00;;;;;;5012496;28;20491;-88
2021/04/14 08:24:36;;;;;;;5.63;3.80;;;10.80;90.80;;;;;;5002901;28;20526;-88
2021/04/14 08:27:14;;;;;;;3.03;2.73;;;10.80;87.90;;;;;;5016391;28;20499;-90
2021/04/14 08:29:41;;;;;;;5.57;3.00;;;11.10;94.00;;;;;;5016142;28;20526;-87
2021/04/14 08:32:09;;;;;;;6.50;2.90;;;11.10;85.30;;;;;;5016431;28;20456;-89
2021/04/14 08:34:38;;;;;;;4.97;2.40;;;10.70;95.60;;;;;;5015948;28;20455;-88
2021/04/14 08:37:16;;;;;;;5.80;2.93;;;10.70;85.40;;;;;;5015478;28;20445;-88
2021/04/14 08:39:50;;;;;;;4.70;2.83;;;10.50;84.00;;;;;;5013004;28;20819;-89
2021/04/14 08:42:28;;;;;;;6.03;3.57;;;11.10;97.90;;;;;;5016895;28;20480;-91
2021/04/14 08:44:56;;;;;;;5.87;3.60;;;11.80;82.00;;;;;;5013908;28;20468;-88
2021/04/14 08:47:28;;;;;;;3.67;3.37;;;11.70;94.60;;;;;;5012449;28;20460;-87
2021/04/14 08:50:01;;;;;;;4.50;4.10;;;12.40;93.50;;;;;;5015117;28;20916;-89
2021/04/14 08:52:28;;;;;;;5.40;3.60;;;12.20;93.50;;;;;;5016557;28;20456;-86
2021/04/14 08:54:54;;;;;;;4.53;3.80;;;;;;;;;;5013716;28;20459;-86
2021/04/14 08:57:22;;;;;;;6.10;3.77;;;11.40;97.00;;;;;;5015073;28;20513;-87
2021/04/14 08:59:52;;;;;;;4.20;3.50;;;12.00;96.00;;;;;;5014585;28;20456;-86
2021/04/14 09:02:21;;;;;;;4.60;3.20;;;12.40;79.50;;;;;;4999262;28;20501;-88
2021/04/14 09:04:49;;;;;;;5.80;3.77;;;12.60;76.90;;;;;;4995158;28;20456;-87
2021/04/14 09:07:23;;;;;;;4.10;2.80;;;12.50;95.20;;;;;;4995844;28;20878;-85
2021/04/14 09:09:52;;;;;;;6.23;3.07;;;12.00;76.40;;;;;;4996423;28;20540;-90
2021/04/14 09:12:19;;;;;;;5.57;3.43;;;;;;;;;;4995521;28;20960;-88
2021/04/14 09:14:45;;;;;;;4.73;3.10;;;;;;;;;;4997132;28;20453;-87
2021/04/14 09:17:18;;;;;;;9.60;2.97;;;11.20;87.40;;;;;;5002270;28;20452;-87
2021/04/14 09:19:46;;;;;;;6.77;2.87;;;11.90;77.90;;;;;;5013650;28;20551;-87
2021/04/14 09:22:24;;;;;;;4.70;3.10;;;12.20;75.20;;;;;;5014057;28;20591;-87
2021/04/14 09:24:52;;;;;;;3.30;2.87;;;13.00;76.90;;;;;;5014900;28;20476;-86
2021/04/14 09:27:31;;;;;;;5.80;2.63;;;13.40;73.70;;;;;;5015859;28;20502;-91
2021/04/14 09:30:09;;;;;;;9.53;3.00;;;14.40;92.70;;;;;;5013310;28;20488;-88
2021/04/14 09:32:48;;;;;;;3.70;2.57;;;13.80;96.90;;;;;;5014295;28;20452;-89
2021/04/14 09:35:18;;;;;;;4.80;3.07;;;14.00;66.90;;;;;;5014027;28;20448;-85
2021/04/14 09:37:47;;;;;;;5.27;2.67;;;12.90;62.30;;;;;;5008844;28;20446;-89
2021/04/14 09:40:27;;;;;;;7.90;3.10;;;12.30;65.80;;;;;;5013685;28;20560;-86
2021/04/14 09:42:53;;;;;;;5.37;3.50;;;;;;;;;;5014076;28;20487;-90
2021/04/14 09:45:37;;;;;;;5.93;2.93;;;11.80;71.60;;;;;;5014034;28;20448;-89
2021/04/14 09:48:18;;;;;;;5.80;3.00;;;11.10;70.60;;;;;;4966070;28;20462;-87
2021/04/14 09:50:47;;;;;;;8.60;2.47;;;11.00;75.60;;;;;;4972369;28;20465;-87
2021/04/14 09:53:25;;;;;;;2.00;1.53;;;12.70;82.30;;;;;;4971447;28;20446;-88
2021/04/14 09:55:56;;;;;;;3.70;1.80;;;11.30;64.80;;;;;;4972083;28;20462;-89
2021/04/14 09:58:34;;;;;;;1.67;1.40;;;10.80;60.60;;;;;;4968731;28;20992;-86
2021/04/14 10:01:12;;;;;;;1.63;1.53;;;11.80;60.00;;;;;;4972981;28;20453;-87
2021/04/14 10:03:41;;;;;;;3.67;2.23;;;;;;;;;;4971580;28;20494;-87
2021/04/14 10:06:10;;;;;;;5.53;2.10;;;12.90;64.40;;;;;;4999595;28;20448;-87
2021/04/14 10:08:42;;;;;;;4.60;2.13;;;11.30;61.20;;;;;;5034945;28;20546;-86
2021/04/14 10:11:09;;;;;;;1.80;1.70;;;;;;;;;;5034409;28;20837;-88
2021/04/14 10:13:36;;;;;;;3.27;2.13;;;;;;;;;;5035177;28;20462;-86
2021/04/14 10:16:04;;;;;;;3.50;2.20;;;9.80;97.20;;;;;;5034725;28;20537;-87
2021/04/14 10:18:32;;;;;;;2.63;2.20;;;9.60;72.10;;;;;;5033617;28;20578;-91
2021/04/14 10:21:13;;;;;;;2.93;2.03;;;9.50;73.00;;;;;;5034551;28;20443;-87
2021/04/14 10:23:43;;;;;;;4.10;2.13;;;9.90;97.90;;;;;;5034104;28;20557;-85
2021/04/14 10:26:11;;;;;;;2.73;1.70;;;9.80;72.20;;;;;;5035300;28;20448;-86
2021/04/14 10:28:41;;;;;;;2.60;1.83;;;9.80;99.50;;;;;;5034903;28;20494;-87
2021/04/14 10:31:11;;;;;;;4.87;1.87;;;10.00;93.90;;;;;;5031926;28;20443;-87
2021/04/14 10:33:40;;;;;;;7.50;2.40;;;9.70;73.70;;;;;;5032676;28;20451;-86
2021/04/14 10:36:18;;;;;;;4.37;1.90;;;9.80;99.90;;;;;;5037933;28;20456;-85
2021/04/14 10:38:45;;;;;;;2.23;2.03;;;9.70;76.40;;;;;;5036885;28;20776;-86
2021/04/14 10:41:18;;;;;;;3.93;1.90;;;9.00;79.20;;;;;;5033370;28;20451;-85
2021/04/14 10:43:45;;;;;;;2.90;2.30;;;;;;;;;;5038084;28;20498;-86
2021/04/14 10:46:15;;;;;;;3.10;2.03;;;9.50;76.10;;;;;;5036950;28;21008;-85
2021/04/14 10:48:44;;;;;;;3.80;2.13;;;9.80;78.10;;;;;;5031537;28;20443;-86
2021/04/14 10:51:16;;;;;;;3.47;2.50;;;11.20;77.50;;;;;;5033059;28;20490;-84
2021/04/14 10:53:44;;;;;;;4.97;2.90;;;11.80;74.30;;;;;;5033933;28;20455;-85
2021/04/14 10:56:17;;;;;;;3.70;2.97;;;11.50;77.30;;;;;;5037404;28;20446;-86
2021/04/14 10:58:44;;;;;;;2.27;2.07;;;10.70;73.80;;;;;;5037844;28;20466;-86
2021/04/14 11:01:13;;;;;;;4.03;2.60;;;10.20;75.30;;;;;;5038082;28;20462;-86
2021/04/14 11:03:44;;;;;;;3.13;2.77;;;9.90;76.30;;;;;;5035656;28;20506;-86
2021/04/14 11:06:13;;;;;;;4.07;3.13;;;9.50;79.50;;;;;;5016743;28;20449;-85
2021/04/14 11:08:42;;;;;;;3.30;2.47;;;9.40;79.80;;;;;;5014989;28;20492;-87
2021/04/14 11:11:10;;;;;;;4.03;3.33;;;8.80;84.50;;;;;;5016138;28;20448;-84
2021/04/14 11:13:42;;;;;;;5.20;3.00;;;8.20;88.20;;;;;;5016507;28;20951;-87
2021/04/14 11:16:12;;;;;;;8.57;3.57;;;8.00;90.90;;;;;;5033623;28;20447;-86
2021/04/14 11:18:42;;;;;;;4.37;2.97;;;8.00;90.80;;;;;;5033091;28;20463;-85
2021/04/14 11:21:27;;;;;;;3.17;2.70;;;7.80;91.20;;;;;;5035498;28;20452;-86
2021/04/14 11:24:10;;;;;;;3.17;2.83;;;7.90;90.90;;;;;;5035877;28;20990;-89
2021/04/14 11:26:39;;;;;;;3.47;2.40;;;7.50;87.90;;;;;;5032433;28;20455;-87
2021/04/14 11:29:07;;;;;;;2.37;2.17;;;7.80;84.40;;;;;;5034868;28;20447;-83
2021/04/14 11:31:36;;;;;;;3.73;2.83;;;8.20;86.00;;;;;;5035128;28;20455;-85
2021/04/14 11:34:15;;;;;;;4.17;2.43;;;8.00;84.80;;;;;;5033985;28;20479;-84
2021/04/14 11:36:42;;;;;;;3.53;2.60;;;;;;;;;;5032303;28;20443;-86
2021/04/14 11:39:16;;;;;;;3.90;2.90;;;10.20;82.80;;;;;;5035849;28;20456;-88
2021/04/14 11:41:44;;;;;;;3.60;2.37;;;10.80;79.50;;;;;;5035326;28;20455;-88
2021/04/14 11:44:21;;;;;;;2.57;2.37;;;10.90;72.90;;;;;;5039461;28;20448;-87
2021/04/14 11:46:56;;;;;;;3.60;2.20;;;10.30;72.00;;;;;;5038045;28;20443;-84
2021/04/14 11:49:28;;;;;;;2.57;2.37;;;9.50;73.20;;;;;;5034795;28;20920;-84
2021/04/14 11:51:58;;;;;;;2.50;2.30;;;8.90;73.80;;;;;;5037314;28;20497;-89
2021/04/14 11:54:30;;;;;;;2.53;2.30;;;9.00;74.50;;;;;;5036227;28;20450;-89
2021/04/14 11:57:02;;;;;;;4.23;2.27;;;8.80;70.50;;;;;;5031018;28;20531;-87
2021/04/14 11:59:32;;;;;;;3.90;2.57;;;9.20;74.70;;;;;;5035313;28;20452;-83
2021/04/14 12:02:01;;;;;;;2.63;2.40;;;9.60;71.20;;;;;;5034365;28;20506;-83
2021/04/14 12:04:31;;;;;;;2.90;2.10;;;9.60;72.30;;;;;;5034208;28;20457;-89
2021/04/14 12:06:57;;;;;;;3.97;2.50;;;;;;;;;;5030523;28;20448;-84
2021/04/14 12:09:24;;;;;;;2.73;2.20;;;;;;;;;;5034272;28;20977;-86
2021/04/14 12:11:58;;;;;;;2.93;1.93;;;9.90;71.90;;;;;;5030073;28;20906;-84
2021/04/14 12:14:25;;;;;;;3.63;2.60;;;;;;;;;;5031263;28;20838;-89
2021/04/14 12:16:52;;;;;;;1.80;1.70;;;11.10;75.40;;;;;;5035225;28;20463;-88
2021/04/14 12:19:18;;;;;;;5.67;3.20;;;;;;;;;;5030196;28;20443;-90
2021/04/14 12:21:45;;;;;;;3.60;2.63;;;;;;;;;;5036196;28;20946;-84
2021/04/14 12:24:12;;;;;;;3.00;2.60;;;;;;;;;;5035004;28;20468;-92
2021/04/14 12:26:38;;;;;;;2.87;2.43;;;;;;;;;;5034365;28;20513;-89
2021/04/14 12:29:05;;;;;;;3.40;2.63;;;;;;;;;;5036271;28;20506;-89
2021/04/14 12:31:32;;;;;;;2.70;2.40;;;;;;;;;;5036936;28;20454;-87
2021/04/14 12:33:59;;;;;;;4.20;2.40;;;11.50;75.70;;;;;;5032887;28;20464;-90
2021/04/14 12:36:26;;;;;;;3.03;2.60;;;;;;;;;;5037164;28;20471;-91
2021/04/14 12:38:52;;;;;;;3.83;2.63;;;;;;;;;;5033879;28;20443;-89
2021/04/14 12:41:19;;;;;;;3.80;2.97;;;;;;;;;;5033775;28;20443;-87
2021/04/14 12:43:46;;;;;;;3.60;2.80;;;;;;;;;;5037780;28;20503;-91
2021/04/14 12:46:13;;;;;;;4.13;2.90;;;;;;;;;;5029683;28;20459;-90
2021/04/14 12:48:43;;;;;;;3.97;2.47;;;10.20;86.40;;;;;;5036350;28;20459;-90
2021/04/14 12:51:15;;;;;;;3.43;2.80;;;10.10;87.90;;;;;;5038678;28;20597;-91
2021/04/14 12:53:45;;;;;;;6.10;2.67;;;10.20;89.30;;;;;;5041978;28;20451;-89
2021/04/14 12:56:22;;;;;;;5.00;3.00;;;10.20;90.00;;;;;;5037701;28;20435;-90
2021/04/14 12:58:50;;;;;;;4.43;3.20;;;;;;;;;;5032381;28;20462;-87
2021/04/14 13:01:17;;;;;;;4.20;2.77;;;;;;;;;;5031631;28;20453;-88
2021/04/14 13:03:49;;;;;;;3.00;2.47;;;9.90;90.70;;;;;;5031692;28;20498;-89
2021/04/14 13:06:21;;;;;;;2.70;2.40;;;9.80;90.50;;;;;;5033415;28;20451;-90
2021/04/14 13:08:50;;;;;;;2.60;2.33;;;9.70;90.80;;;;;;5035103;28;20543;-89
2021/04/14 13:11:19;;;;;;;6.80;2.87;;;9.90;91.10;;;;;;5027560;28;20843;-87
2021/04/14 13:13:46;;;;;;;2.63;2.20;;;;;;;;;;5033596;28;20443;-88
2021/04/14 13:16:15;;;;;;;3.40;2.23;;;;;;;;;;5035527;28;20475;-89
2021/04/14 13:18:42;;;;;;;3.70;2.87;;;;;;;;;;5035250;28;20456;-89
2021/04/14 13:21:18;;;;;;;2.80;2.40;;;12.30;86.00;;;;;;5036233;28;20443;-88
2021/04/14 13:23:48;;;;;;;3.53;2.60;;;12.60;87.10;;;;;;5035030;28;20499;-91
2021/04/14 13:26:22;;;;;;;3.13;2.40;;;11.60;82.50;;;;;;5031627;28;20447;-88
2021/04/14 13:28:53;;;;;;;3.63;2.50;;;11.30;81.20;;;;;;5037395;28;20483;-87
2021/04/14 13:31:33;;;;;;;2.90;2.40;;;10.80;83.10;;;;;;5035223;28;20925;-88
2021/04/14 13:34:06;;;;;;;3.10;2.23;;;10.80;83.50;;;;;;5033344;28;20459;-89